PWSweather.com
Personal Weather Stations
Station Observations
DEEPSOUTH
Waverley, InvercargillNZ 9810

WaverleyInvercargillNZ 9810

Lat: -46.3926834, Lon: 168.381112

Elevation: 72

Station Type: Davis VP2

http://www.deepsouthweather.co.nz/

Latest ConditionsUpdated 7:30:00 PM GMT+11:11 Sunday, Apr 20, 2014
Currently Today's Max Today's Min Today's Average
Temperature 53.8°F12.1°C 63.7°F17.6°C 47.8°F8.8°C 55.2°F12.9°C
Dew Point 52.7°F11.5°C 54.9°F12.7°C 45.4°F7.4°C 51.3°F10.7°C
Winds 7.0 mph W11.3 kmh W 9.0 mph WSW14.5 kmh WSW - 4.7 mph 7.6 kmh
Wind Gusts 14.0 mph22.5 kmh 22.0 mph35.4 kmh - -
Humidity 96% 96% 70% 87%
Pressure 29.50 in999.0 mb 29.50 in999.0 mb 29.26 in990.9 mb -
Precipitation - 0.09 in2.3 mm - -
Hour Temp Dew Point Humidity Winds Wind Gusts Pressure Precip Precip Rate Daily Precip Total
07:30 PM 53.8°F12.1°C 52.7°F11.5°C 96% 7.0 mph W11.3 kmh W 14.0 mph22.5 kmh 29.50 in999.0 mb 0.06 in1.5 mm 0.00 in/hr0.0 mm/hr 0.09 in2.3 mm
07:20 PM 53.6°F12.0°C 52.2°F11.2°C 95% 7.0 mph W11.3 kmh W 22.0 mph35.4 kmh 29.49 in998.6 mb 0.06 in1.5 mm 0.12 in/hr3.0 mm/hr 0.09 in2.3 mm
07:10 PM 53.4°F11.9°C 52.0°F11.1°C 95% 7.0 mph WNW11.3 kmh WNW 15.0 mph24.1 kmh 29.48 in998.3 mb 0.04 in1.0 mm 0.12 in/hr3.0 mm/hr 0.06 in1.5 mm
07:00 PM 53.2°F11.8°C 51.8°F11.0°C 95% 7.0 mph WNW11.3 kmh WNW 14.0 mph22.5 kmh 29.48 in998.3 mb 0.02 in0.5 mm 0.00 in/hr0.0 mm/hr 0.05 in1.3 mm
06:50 PM 53.2°F11.8°C 51.6°F10.9°C 94% 8.0 mph W12.9 kmh W 19.0 mph30.6 kmh 29.48 in998.3 mb 0.02 in0.5 mm 0.06 in/hr1.5 mm/hr 0.04 in1.0 mm
06:40 PM 53.6°F12.0°C 51.9°F11.1°C 94% 7.0 mph WSW11.3 kmh WSW 15.0 mph24.1 kmh 29.48 in998.3 mb 0.01 in0.3 mm 0.00 in/hr0.0 mm/hr 0.03 in0.8 mm
06:30 PM 53.8°F12.1°C 51.8°F11.0°C 93% 7.0 mph WSW11.3 kmh WSW 21.0 mph33.8 kmh 29.48 in998.3 mb 0.01 in0.3 mm 0.00 in/hr0.0 mm/hr 0.02 in0.5 mm
06:20 PM 54.0°F12.2°C 52.0°F11.1°C 93% 6.0 mph W9.7 kmh W 14.0 mph22.5 kmh 29.47 in998.0 mb 0.01 in0.3 mm 0.00 in/hr0.0 mm/hr 0.02 in0.5 mm
06:10 PM 54.3°F12.4°C 52.0°F11.1°C 92% 8.0 mph WSW12.9 kmh WSW 16.0 mph25.7 kmh 29.46 in997.6 mb 0.01 in0.3 mm 0.00 in/hr0.0 mm/hr 0.02 in0.5 mm
06:00 PM 54.9°F12.7°C 52.9°F11.6°C 93% 5.0 mph WSW8.0 kmh WSW 11.0 mph17.7 kmh 29.46 in997.6 mb 0.01 in0.3 mm 0.00 in/hr0.0 mm/hr 0.02 in0.5 mm
05:50 PM 54.9°F12.7°C 52.9°F11.6°C 93% 6.0 mph WSW9.7 kmh WSW 15.0 mph24.1 kmh 29.46 in997.6 mb 0.02 in0.5 mm 0.00 in/hr0.0 mm/hr 0.02 in0.5 mm
05:40 PM 54.9°F12.7°C 52.9°F11.6°C 93% 4.0 mph W6.4 kmh W 8.0 mph12.9 kmh 29.45 in997.3 mb 0.02 in0.5 mm 0.00 in/hr0.0 mm/hr 0.02 in0.5 mm
05:30 PM 55.0°F12.8°C 52.8°F11.6°C 92% 4.0 mph W6.4 kmh W 9.0 mph14.5 kmh 29.45 in997.3 mb 0.02 in0.5 mm 0.00 in/hr0.0 mm/hr 0.02 in0.5 mm
05:20 PM 55.0°F12.8°C 52.8°F11.6°C 92% 4.0 mph W6.4 kmh W 7.0 mph11.3 kmh 29.44 in997.0 mb 0.02 in0.5 mm 0.00 in/hr0.0 mm/hr 0.02 in0.5 mm
05:10 PM 55.2°F12.9°C 52.6°F11.4°C 91% 5.0 mph W8.0 kmh W 9.0 mph14.5 kmh 29.44 in997.0 mb 0.02 in0.5 mm 0.06 in/hr1.5 mm/hr 0.02 in0.5 mm
05:00 PM 55.4°F13.0°C 52.8°F11.6°C 91% 5.0 mph W8.0 kmh W 13.0 mph20.9 kmh 29.43 in996.6 mb 0.01 in0.3 mm 0.00 in/hr0.0 mm/hr 0.01 in0.3 mm
04:50 PM 55.6°F13.1°C 52.7°F11.5°C 90% 5.0 mph W8.0 kmh W 8.0 mph12.9 kmh 29.43 in996.6 mb 0.01 in0.3 mm 0.06 in/hr1.5 mm/hr 0.01 in0.3 mm
04:40 PM 55.8°F13.2°C 52.9°F11.6°C 90% 5.0 mph WSW8.0 kmh WSW 13.0 mph20.9 kmh 29.42 in996.3 mb 0.00 in0.0 mm 0.00 in/hr0.0 mm/hr 0.00 in0.0 mm
04:30 PM 55.9°F13.3°C 53.0°F11.7°C 90% 6.0 mph WSW9.7 kmh WSW 13.0 mph20.9 kmh 29.42 in996.3 mb 0.00 in0.0 mm 0.00 in/hr0.0 mm/hr 0.00 in0.0 mm
04:20 PM 55.9°F13.3°C 52.7°F11.5°C 89% 5.0 mph WSW8.0 kmh WSW 13.0 mph20.9 kmh 29.42 in996.3 mb 0.00 in0.0 mm 0.00 in/hr0.0 mm/hr 0.00 in0.0 mm
04:10 PM 56.1°F13.4°C 52.9°F11.6°C 89% 6.0 mph WSW9.7 kmh WSW 15.0 mph24.1 kmh 29.42 in996.3 mb 0.00 in0.0 mm 0.00 in/hr0.0 mm/hr 0.00 in0.0 mm
04:00 PM 56.5°F13.6°C 53.3°F11.8°C 89% 6.0 mph WSW9.7 kmh WSW 17.0 mph27.4 kmh 29.42 in996.3 mb 0.00 in0.0 mm 0.00 in/hr0.0 mm/hr 0.00 in0.0 mm
03:50 PM 56.5°F13.6°C 53.3°F11.8°C 89% 8.0 mph WSW12.9 kmh WSW 18.0 mph29.0 kmh 29.41 in995.9 mb 0.00 in0.0 mm 0.00 in/hr0.0 mm/hr 0.00 in0.0 mm
03:40 PM 56.7°F13.7°C 53.1°F11.7°C 88% 8.0 mph WSW12.9 kmh WSW 18.0 mph29.0 kmh 29.41 in995.9 mb 0.00 in0.0 mm 0.00 in/hr0.0 mm/hr 0.00 in0.0 mm
03:30 PM 57.0°F13.9°C 53.2°F11.8°C 87% 8.0 mph WSW12.9 kmh WSW 16.0 mph25.7 kmh 29.41 in995.9 mb 0.00 in0.0 mm 0.00 in/hr0.0 mm/hr 0.00 in0.0 mm
03:20 PM 57.2°F14.0°C 53.4°F11.9°C 87% 9.0 mph SW14.5 kmh SW 18.0 mph29.0 kmh 29.41 in995.9 mb 0.00 in0.0 mm 0.00 in/hr0.0 mm/hr 0.00 in0.0 mm
03:10 PM 57.4°F14.1°C 53.2°F11.8°C 86% 9.0 mph SW14.5 kmh SW 19.0 mph30.6 kmh 29.41 in995.9 mb 0.00 in0.0 mm 0.00 in/hr0.0 mm/hr 0.00 in0.0 mm
03:00 PM 57.6°F14.2°C 53.4°F11.9°C 86% 8.0 mph WSW12.9 kmh WSW 15.0 mph24.1 kmh 29.40 in995.6 mb 0.00 in0.0 mm 0.00 in/hr0.0 mm/hr 0.00 in0.0 mm
02:50 PM 57.7°F14.3°C 53.3°F11.8°C 85% 9.0 mph WSW14.5 kmh WSW 18.0 mph29.0 kmh 29.40 in995.6 mb 0.00 in0.0 mm 0.00 in/hr0.0 mm/hr 0.00 in0.0 mm
02:40 PM 57.9°F14.4°C 53.1°F11.7°C 84% 8.0 mph WSW12.9 kmh WSW 19.0 mph30.6 kmh 29.40 in995.6 mb 0.00 in0.0 mm 0.00 in/hr0.0 mm/hr 0.00 in0.0 mm
02:30 PM 58.1°F14.5°C 52.6°F11.4°C 82% 9.0 mph SW14.5 kmh SW 20.0 mph32.2 kmh 29.40 in995.6 mb 0.00 in0.0 mm 0.00 in/hr0.0 mm/hr 0.00 in0.0 mm
02:20 PM 58.3°F14.6°C 51.8°F11.0°C 79% 8.0 mph SW12.9 kmh SW 16.0 mph25.7 kmh 29.39 in995.3 mb 0.00 in0.0 mm 0.00 in/hr0.0 mm/hr 0.00 in0.0 mm
02:10 PM 58.6°F14.8°C 51.8°F11.0°C 78% 9.0 mph SW14.5 kmh SW 18.0 mph29.0 kmh 29.39 in995.3 mb 0.00 in0.0 mm 0.00 in/hr0.0 mm/hr 0.00 in0.0 mm
02:00 PM 59.0°F15.0°C 51.8°F11.0°C 77% 9.0 mph SW14.5 kmh SW 17.0 mph27.4 kmh 29.39 in995.3 mb 0.00 in0.0 mm 0.00 in/hr0.0 mm/hr 0.00 in0.0 mm
01:50 PM 59.5°F15.3°C 52.0°F11.1°C 76% 9.0 mph SW14.5 kmh SW 17.0 mph27.4 kmh 29.38 in994.9 mb 0.00 in0.0 mm 0.00 in/hr0.0 mm/hr 0.00 in0.0 mm
01:40 PM 60.3°F15.7°C 52.3°F11.3°C 75% 6.0 mph SW9.7 kmh SW 14.0 mph22.5 kmh 29.38 in994.9 mb 0.00 in0.0 mm 0.00 in/hr0.0 mm/hr 0.00 in0.0 mm
01:30 PM 60.6°F15.9°C 51.9°F11.1°C 73% 7.0 mph SW11.3 kmh SW 15.0 mph24.1 kmh 29.37 in994.6 mb 0.00 in0.0 mm 0.00 in/hr0.0 mm/hr 0.00 in0.0 mm
01:20 PM 61.5°F16.4°C 52.8°F11.6°C 73% 7.0 mph SW11.3 kmh SW 15.0 mph24.1 kmh 29.37 in994.6 mb 0.00 in0.0 mm 0.00 in/hr0.0 mm/hr 0.00 in0.0 mm
01:10 PM 62.2°F16.8°C 52.7°F11.5°C 71% 7.0 mph WSW11.3 kmh WSW 14.0 mph22.5 kmh 29.37 in994.6 mb 0.00 in0.0 mm 0.00 in/hr0.0 mm/hr 0.00 in0.0 mm
01:00 PM 63.1°F17.3°C 53.6°F12.0°C 71% 5.0 mph WSW8.0 kmh WSW 13.0 mph20.9 kmh 29.37 in994.6 mb 0.00 in0.0 mm 0.00 in/hr0.0 mm/hr 0.00 in0.0 mm
12:50 PM 63.7°F17.6°C 53.7°F12.1°C 70% 5.0 mph WSW8.0 kmh WSW 14.0 mph22.5 kmh 29.37 in994.6 mb 0.00 in0.0 mm 0.00 in/hr0.0 mm/hr 0.00 in0.0 mm
12:40 PM 63.1°F17.3°C 54.3°F12.4°C 73% 5.0 mph WSW8.0 kmh WSW 11.0 mph17.7 kmh 29.36 in994.2 mb 0.00 in0.0 mm 0.00 in/hr0.0 mm/hr 0.00 in0.0 mm
12:30 PM 61.9°F16.6°C 53.5°F11.9°C 74% 5.0 mph WSW8.0 kmh WSW 10.0 mph16.1 kmh 29.37 in994.6 mb 0.00 in0.0 mm 0.00 in/hr0.0 mm/hr 0.00 in0.0 mm
12:20 PM 61.7°F16.5°C 53.3°F11.8°C 74% 5.0 mph WSW8.0 kmh WSW 12.0 mph19.3 kmh 29.36 in994.2 mb 0.00 in0.0 mm 0.00 in/hr0.0 mm/hr 0.00 in0.0 mm
12:10 PM 61.7°F16.5°C 53.7°F12.1°C 75% 5.0 mph WSW8.0 kmh WSW 11.0 mph17.7 kmh 29.37 in994.6 mb 0.00 in0.0 mm 0.00 in/hr0.0 mm/hr 0.00 in0.0 mm
12:00 PM 61.5°F16.4°C 54.2°F12.3°C 77% 5.0 mph WSW8.0 kmh WSW 11.0 mph17.7 kmh 29.37 in994.6 mb 0.00 in0.0 mm 0.00 in/hr0.0 mm/hr 0.00 in0.0 mm
11:50 AM 61.5°F16.4°C 53.9°F12.2°C 76% 6.0 mph WSW9.7 kmh WSW 12.0 mph19.3 kmh 29.37 in994.6 mb 0.00 in0.0 mm 0.00 in/hr0.0 mm/hr 0.00 in0.0 mm
11:40 AM 62.1°F16.7°C 54.0°F12.2°C 75% 6.0 mph WSW9.7 kmh WSW 13.0 mph20.9 kmh 29.37 in994.6 mb 0.00 in0.0 mm 0.00 in/hr0.0 mm/hr 0.00 in0.0 mm
11:30 AM 62.1°F16.7°C 54.4°F12.4°C 76% 6.0 mph WSW9.7 kmh WSW 13.0 mph20.9 kmh 29.37 in994.6 mb 0.00 in0.0 mm 0.00 in/hr0.0 mm/hr 0.00 in0.0 mm
11:20 AM 61.3°F16.3°C 54.1°F12.3°C 77% 6.0 mph WSW9.7 kmh WSW 13.0 mph20.9 kmh 29.37 in994.6 mb 0.00 in0.0 mm 0.00 in/hr0.0 mm/hr 0.00 in0.0 mm
11:10 AM 62.1°F16.7°C 54.8°F12.7°C 77% 6.0 mph WSW9.7 kmh WSW 11.0 mph17.7 kmh 29.37 in994.6 mb 0.00 in0.0 mm 0.00 in/hr0.0 mm/hr 0.00 in0.0 mm
11:00 AM 62.6°F17.0°C 54.9°F12.7°C 76% 6.0 mph WSW9.7 kmh WSW 14.0 mph22.5 kmh 29.38 in994.9 mb 0.00 in0.0 mm 0.00 in/hr0.0 mm/hr 0.00 in0.0 mm
10:50 AM 61.9°F16.6°C 54.9°F12.7°C 78% 7.0 mph WSW11.3 kmh WSW 14.0 mph22.5 kmh 29.38 in994.9 mb 0.00 in0.0 mm 0.00 in/hr0.0 mm/hr 0.00 in0.0 mm
10:40 AM 61.3°F16.3°C 54.8°F12.7°C 79% 7.0 mph WSW11.3 kmh WSW 14.0 mph22.5 kmh 29.38 in994.9 mb 0.00 in0.0 mm 0.00 in/hr0.0 mm/hr 0.00 in0.0 mm
10:30 AM 61.3°F16.3°C 54.4°F12.4°C 78% 7.0 mph SW11.3 kmh SW 14.0 mph22.5 kmh 29.37 in994.6 mb 0.00 in0.0 mm 0.00 in/hr0.0 mm/hr 0.00 in0.0 mm
10:20 AM 61.3°F16.3°C 54.4°F12.4°C 78% 7.0 mph WSW11.3 kmh WSW 13.0 mph20.9 kmh 29.37 in994.6 mb 0.00 in0.0 mm 0.00 in/hr0.0 mm/hr 0.00 in0.0 mm
10:10 AM 61.0°F16.1°C 54.1°F12.3°C 78% 8.0 mph WSW12.9 kmh WSW 13.0 mph20.9 kmh 29.37 in994.6 mb 0.00 in0.0 mm 0.00 in/hr0.0 mm/hr 0.00 in0.0 mm
10:00 AM 61.2°F16.2°C 54.6°F12.6°C 79% 6.0 mph WSW9.7 kmh WSW 12.0 mph19.3 kmh 29.37 in994.6 mb 0.00 in0.0 mm 0.00 in/hr0.0 mm/hr 0.00 in0.0 mm
09:50 AM 60.6°F15.9°C 54.8°F12.7°C 81% 6.0 mph SW9.7 kmh SW 11.0 mph17.7 kmh 29.37 in994.6 mb 0.00 in0.0 mm 0.00 in/hr0.0 mm/hr 0.00 in0.0 mm
09:40 AM 60.1°F15.6°C 54.6°F12.6°C 82% 5.0 mph SW8.0 kmh SW 11.0 mph17.7 kmh 29.37 in994.6 mb 0.00 in0.0 mm 0.00 in/hr0.0 mm/hr 0.00 in0.0 mm
09:30 AM 59.7°F15.4°C 54.5°F12.5°C 83% 5.0 mph WSW8.0 kmh WSW 11.0 mph17.7 kmh 29.37 in994.6 mb 0.00 in0.0 mm 0.00 in/hr0.0 mm/hr 0.00 in0.0 mm
09:20 AM 59.7°F15.4°C 54.5°F12.5°C 83% 5.0 mph WSW8.0 kmh WSW 12.0 mph19.3 kmh 29.37 in994.6 mb 0.00 in0.0 mm 0.00 in/hr0.0 mm/hr 0.00 in0.0 mm
09:10 AM 59.7°F15.4°C 54.9°F12.7°C 84% 4.0 mph WSW6.4 kmh WSW 9.0 mph14.5 kmh 29.37 in994.6 mb 0.00 in0.0 mm 0.00 in/hr0.0 mm/hr 0.00 in0.0 mm
09:00 AM 59.4°F15.2°C 54.8°F12.7°C 85% 4.0 mph WSW6.4 kmh WSW 8.0 mph12.9 kmh 29.36 in994.2 mb 0.00 in0.0 mm 0.00 in/hr0.0 mm/hr 0.00 in0.0 mm
08:50 AM 58.8°F14.9°C 54.6°F12.6°C 86% 3.0 mph W4.8 kmh W 8.0 mph12.9 kmh 29.37 in994.6 mb 0.00 in0.0 mm 0.00 in/hr0.0 mm/hr 0.00 in0.0 mm
08:40 AM 58.3°F14.6°C 54.7°F12.6°C 88% 3.0 mph WSW4.8 kmh WSW 6.0 mph9.7 kmh 29.37 in994.6 mb 0.00 in0.0 mm 0.00 in/hr0.0 mm/hr 0.00 in0.0 mm
08:30 AM 57.0°F13.9°C 53.8°F12.1°C 89% 4.0 mph WSW6.4 kmh WSW 9.0 mph14.5 kmh 29.36 in994.2 mb 0.00 in0.0 mm 0.00 in/hr0.0 mm/hr 0.00 in0.0 mm
08:20 AM 56.8°F13.8°C 53.3°F11.8°C 88% 5.0 mph WSW8.0 kmh WSW 11.0 mph17.7 kmh 29.36 in994.2 mb 0.00 in0.0 mm 0.00 in/hr0.0 mm/hr 0.00 in0.0 mm
08:10 AM 57.2°F14.0°C 54.0°F12.2°C 89% 4.0 mph SW6.4 kmh SW 10.0 mph16.1 kmh 29.36 in994.2 mb 0.00 in0.0 mm 0.00 in/hr0.0 mm/hr 0.00 in0.0 mm
08:00 AM 56.8°F13.8°C 53.9°F12.2°C 90% 6.0 mph WSW9.7 kmh WSW 12.0 mph19.3 kmh 29.36 in994.2 mb 0.00 in0.0 mm 0.00 in/hr0.0 mm/hr 0.00 in0.0 mm
07:50 AM 56.3°F13.5°C 54.0°F12.2°C 92% 4.0 mph SW6.4 kmh SW 8.0 mph12.9 kmh 29.36 in994.2 mb 0.00 in0.0 mm 0.00 in/hr0.0 mm/hr 0.00 in0.0 mm
07:40 AM 55.8°F13.2°C 53.8°F12.1°C 93% 5.0 mph SW8.0 kmh SW 10.0 mph16.1 kmh 29.35 in993.9 mb 0.00 in0.0 mm 0.00 in/hr0.0 mm/hr 0.00 in0.0 mm
07:30 AM 55.0°F12.8°C 53.3°F11.8°C 94% 3.0 mph SW4.8 kmh SW 6.0 mph9.7 kmh 29.35 in993.9 mb 0.00 in0.0 mm 0.00 in/hr0.0 mm/hr 0.00 in0.0 mm
07:20 AM 54.7°F12.6°C 53.3°F11.8°C 95% 1.0 mph SW1.6 kmh SW 6.0 mph9.7 kmh 29.35 in993.9 mb 0.00 in0.0 mm 0.00 in/hr0.0 mm/hr 0.00 in0.0 mm
07:13 AM 50.8°F10.4°C 48.3°F9.1°C 91% 5.0 mph NNE8.0 kmh NNE 5.0 mph8.0 kmh 29.28 in991.5 mb 0.00 in0.0 mm 0.00 in/hr0.0 mm/hr 0.00 in0.0 mm
07:12 AM 54.5°F12.5°C 51.0°F10.6°C 88% 4.0 mph N6.4 kmh N 4.0 mph6.4 kmh 29.26 in990.9 mb 0.00 in0.0 mm 0.00 in/hr0.0 mm/hr 0.00 in0.0 mm
07:00 AM 54.0°F12.2°C 52.6°F11.4°C 95% 6.0 mph SW9.7 kmh SW 6.0 mph9.7 kmh 29.34 in993.6 mb 0.00 in0.0 mm 0.00 in/hr0.0 mm/hr 0.00 in0.0 mm